createdAt,value
2018-07-13T00:02:04.313Z,9.90
2018-07-13T00:04:32.599Z,9.40
2018-07-13T00:07:00.180Z,9.50
2018-07-13T00:09:27.687Z,10.50
2018-07-13T00:11:55.247Z,10.47
2018-07-13T00:14:23.845Z,10.23
2018-07-13T00:16:53.987Z,9.97
2018-07-13T00:19:22.319Z,10.53
2018-07-13T00:21:49.984Z,9.60
2018-07-13T00:24:19.185Z,9.87
2018-07-13T00:26:48.552Z,9.40
2018-07-13T00:29:16.282Z,8.83
2018-07-13T00:31:44.126Z,10.90
2018-07-13T00:34:11.699Z,10.57
2018-07-13T00:36:39.371Z,9.17
2018-07-13T00:39:08.154Z,9.70
2018-07-13T00:41:35.735Z,10.83
2018-07-13T00:44:04.196Z,10.30
2018-07-13T00:46:31.774Z,11.07
2018-07-13T00:49:00.001Z,9.87
2018-07-13T00:51:28.117Z,9.87
2018-07-13T00:53:55.759Z,9.63
2018-07-13T00:56:23.383Z,10.90
2018-07-13T00:58:50.939Z,10.83
2018-07-13T01:01:19.083Z,10.17
2018-07-13T01:03:46.631Z,9.60
2018-07-13T01:06:14.673Z,9.80
2018-07-13T01:08:42.257Z,10.33
2018-07-13T01:11:09.845Z,11.90
2018-07-13T01:13:38.557Z,10.03
2018-07-13T01:16:06.229Z,10.30
2018-07-13T01:18:33.748Z,10.70
2018-07-13T01:21:01.446Z,11.17
2018-07-13T01:23:29.107Z,10.47
2018-07-13T01:25:56.795Z,10.10
2018-07-13T01:28:24.465Z,11.33
2018-07-13T01:30:52.394Z,11.70
2018-07-13T01:33:20.070Z,10.47
2018-07-13T01:35:47.680Z,11.30
2018-07-13T01:38:15.631Z,10.60
2018-07-13T01:40:43.790Z,10.20
2018-07-13T01:43:12.088Z,11.10
2018-07-13T01:45:39.670Z,10.00
2018-07-13T01:48:07.383Z,10.47
2018-07-13T01:50:34.947Z,10.07
2018-07-13T01:53:02.635Z,9.53
2018-07-13T01:55:30.453Z,11.30
2018-07-13T01:57:58.086Z,11.03
2018-07-13T02:00:25.688Z,11.10
2018-07-13T02:02:53.404Z,11.10
2018-07-13T02:05:21.023Z,12.80
2018-07-13T02:07:49.363Z,11.00
2018-07-13T02:10:17.895Z,11.33
2018-07-13T02:12:45.493Z,11.53
2018-07-13T02:15:15.868Z,11.20
2018-07-13T02:17:44.593Z,11.30
2018-07-13T02:20:13.075Z,10.73
2018-07-13T02:22:40.791Z,12.10
2018-07-13T02:25:08.389Z,12.00
2018-07-13T02:27:35.994Z,11.83
2018-07-13T02:30:03.870Z,11.90
2018-07-13T02:32:31.472Z,11.33
2018-07-13T02:34:59.117Z,12.20
2018-07-13T02:37:30.947Z,11.03
2018-07-13T02:39:58.563Z,11.90
2018-07-13T02:42:26.140Z,11.10
2018-07-13T02:44:53.859Z,11.37
2018-07-13T02:47:21.434Z,11.43
2018-07-13T02:49:49.074Z,11.50
2018-07-13T02:52:16.739Z,10.50
2018-07-13T02:54:44.383Z,11.90
2018-07-13T02:57:13.022Z,13.20
2018-07-13T02:59:40.657Z,12.27
2018-07-13T03:02:08.306Z,12.80
2018-07-13T03:04:35.911Z,11.93
2018-07-13T03:07:04.369Z,12.00
2018-07-13T03:09:35.446Z,11.60
2018-07-13T03:12:03.156Z,12.13
2018-07-13T03:14:30.750Z,12.10
2018-07-13T03:16:58.483Z,12.47
2018-07-13T03:19:26.228Z,12.30
2018-07-13T03:21:54.624Z,11.80
2018-07-13T03:24:23.604Z,12.43
2018-07-13T03:26:51.231Z,13.73
2018-07-13T03:29:18.914Z,12.23
2018-07-13T03:31:47.288Z,11.70
2018-07-13T03:34:15.406Z,13.20
2018-07-13T03:36:43.072Z,13.47
2018-07-13T03:39:11.458Z,14.50
2018-07-13T03:41:39.087Z,13.00
2018-07-13T03:44:07.222Z,13.20
2018-07-13T03:46:34.807Z,14.20
2018-07-13T03:49:02.470Z,12.93
2018-07-13T03:51:30.108Z,13.73
2018-07-13T03:53:57.778Z,13.33
2018-07-13T03:56:25.510Z,14.83
2018-07-13T03:58:53.160Z,14.80
2018-07-13T04:01:20.801Z,14.40
2018-07-13T04:03:48.382Z,13.03
2018-07-13T04:06:17.656Z,14.83
2018-07-13T04:08:45.250Z,16.77
2018-07-13T04:11:15.654Z,14.73
2018-07-13T04:13:43.302Z,17.00
2018-07-13T04:16:10.954Z,15.80
2018-07-13T04:18:38.572Z,15.87
2018-07-13T04:21:06.267Z,17.30
2018-07-13T04:23:33.902Z,16.23
2018-07-13T04:26:01.670Z,17.40
2018-07-13T04:28:30.089Z,15.97
2018-07-13T04:30:57.808Z,16.80
2018-07-13T04:33:25.527Z,16.67
2018-07-13T04:35:53.222Z,16.43
2018-07-13T04:38:20.822Z,16.40
2018-07-13T04:40:48.466Z,16.90
2018-07-13T04:43:16.216Z,17.87
2018-07-13T04:45:44.005Z,19.00
2018-07-13T04:48:11.816Z,18.63
2018-07-13T04:50:39.518Z,18.10
2018-07-13T04:53:07.203Z,19.73
2018-07-13T04:55:35.421Z,18.20
2018-07-13T04:58:03.206Z,18.83
2018-07-13T05:00:31.432Z,20.90
2018-07-13T05:02:59.181Z,19.93
2018-07-13T05:05:27.047Z,23.27
2018-07-13T05:07:54.759Z,21.70
2018-07-13T05:10:22.890Z,23.57
2018-07-13T05:12:50.580Z,26.40
2018-07-13T05:15:18.286Z,27.83
2018-07-13T05:17:45.948Z,32.93
2018-07-13T05:20:13.594Z,28.53
2018-07-13T05:22:41.974Z,29.90
2018-07-13T05:25:09.946Z,26.30
2018-07-13T05:27:37.812Z,23.20
2018-07-13T05:30:06.320Z,22.50
2018-07-13T05:32:34.522Z,24.87
2018-07-13T05:35:02.371Z,24.37
2018-07-13T05:37:30.749Z,22.93
2018-07-13T05:39:58.756Z,22.97
2018-07-13T05:42:26.450Z,24.90
2018-07-13T05:44:54.168Z,23.50
2018-07-13T05:47:21.913Z,23.73
2018-07-13T05:49:49.953Z,24.47
2018-07-13T05:52:19.233Z,23.70
2018-07-13T05:54:47.661Z,25.03
2018-07-13T05:57:15.461Z,27.20
2018-07-13T05:59:43.505Z,27.77
2018-07-13T06:02:11.191Z,26.33
2018-07-13T06:04:38.925Z,27.03
2018-07-13T06:07:07.447Z,25.70
2018-07-13T06:09:35.203Z,25.87
2018-07-13T06:12:02.796Z,25.60
2018-07-13T06:14:30.431Z,26.73
2018-07-13T06:16:58.102Z,25.50
2018-07-13T06:19:26.605Z,25.67
2018-07-13T06:21:54.337Z,26.60
2018-07-13T06:24:22.191Z,26.50
2018-07-13T06:26:52.584Z,24.97
2018-07-13T06:29:20.355Z,26.07
2018-07-13T06:31:49.664Z,23.93
2018-07-13T06:34:17.362Z,23.80
2018-07-13T06:36:45.098Z,23.40
2018-07-13T06:39:13.129Z,22.77
2018-07-13T06:41:40.801Z,23.40
2018-07-13T06:44:08.515Z,24.00
2018-07-13T06:46:41.612Z,23.23
2018-07-13T06:49:11.211Z,23.40
2018-07-13T06:51:38.962Z,21.07
2018-07-13T06:54:07.243Z,20.90
2018-07-13T06:56:34.897Z,20.43
2018-07-13T06:59:17.207Z,19.27
2018-07-13T07:01:46.504Z,21.57
2018-07-13T07:04:35.758Z,17.83
2018-07-13T07:07:11.679Z,18.37
2018-07-13T07:09:40.639Z,15.87
2018-07-13T07:13:16.231Z,15.20
2018-07-13T07:15:43.984Z,12.37
2018-07-13T07:18:12.482Z,11.23
2018-07-13T07:20:42.183Z,12.47
2018-07-13T07:23:09.895Z,12.00
2018-07-13T07:25:38.752Z,10.33
2018-07-13T07:28:07.899Z,9.80
2018-07-13T07:30:35.503Z,8.03
2018-07-13T07:33:03.186Z,9.03
2018-07-13T07:35:30.928Z,7.97
2018-07-13T07:37:58.738Z,8.27
2018-07-13T07:40:26.496Z,7.57
2018-07-13T07:42:54.129Z,7.80
2018-07-13T07:45:21.847Z,8.20
2018-07-13T07:47:49.621Z,8.00
2018-07-13T07:50:17.493Z,7.33
2018-07-13T07:52:45.270Z,7.77
2018-07-13T07:55:13.180Z,8.40
2018-07-13T07:57:40.896Z,8.50
2018-07-13T08:00:08.468Z,7.43
2018-07-13T08:02:36.034Z,7.43
2018-07-13T08:05:03.964Z,6.47
2018-07-13T08:07:31.833Z,7.87
2018-07-13T08:09:59.588Z,6.30
2018-07-13T08:12:27.197Z,8.00
2018-07-13T08:14:55.516Z,6.60
2018-07-13T08:17:23.677Z,6.27
2018-07-13T08:19:51.852Z,7.23
2018-07-13T08:22:25.017Z,8.50
2018-07-13T08:24:54.830Z,8.17
2018-07-13T08:27:25.548Z,7.60
2018-07-13T08:29:53.679Z,7.93
2018-07-13T08:32:21.226Z,7.73
2018-07-13T08:34:48.805Z,7.30
2018-07-13T08:37:16.389Z,6.60
2018-07-13T08:39:44.096Z,6.73
2018-07-13T08:42:11.751Z,7.37
2018-07-13T08:44:39.512Z,6.67
2018-07-13T08:47:07.172Z,6.53
2018-07-13T08:49:35.346Z,7.70
2018-07-13T08:52:03.156Z,6.77
2018-07-13T08:54:30.862Z,7.60
2018-07-13T08:56:58.816Z,6.83
2018-07-13T08:59:26.597Z,7.30
2018-07-13T09:01:54.801Z,7.90
2018-07-13T09:04:23.500Z,6.93
2018-07-13T09:06:51.477Z,7.53
2018-07-13T09:09:19.608Z,6.30
2018-07-13T09:11:47.461Z,6.90
2018-07-13T09:14:15.062Z,7.03
2018-07-13T09:16:42.876Z,7.30
2018-07-13T09:19:10.540Z,6.87
2018-07-13T09:21:38.240Z,6.60
2018-07-13T09:24:06.811Z,5.40
2018-07-13T09:26:35.173Z,6.57
2018-07-13T09:29:02.834Z,6.93
2018-07-13T09:31:30.550Z,5.80
2018-07-13T09:33:58.361Z,6.73
2018-07-13T09:36:26.145Z,5.53
2018-07-13T09:38:53.763Z,5.27
2018-07-13T09:41:21.638Z,5.63
2018-07-13T09:43:51.520Z,6.07
2018-07-13T09:46:19.509Z,7.00
2018-07-13T09:48:47.190Z,5.70
2018-07-13T09:51:15.701Z,6.23
2018-07-13T09:53:43.487Z,5.90
2018-07-13T09:56:11.052Z,6.43
2018-07-13T09:58:39.294Z,5.50
2018-07-13T10:01:12.498Z,5.30
2018-07-13T10:03:40.143Z,6.40
2018-07-13T10:06:07.832Z,5.33
2018-07-13T10:08:35.760Z,6.07
2018-07-13T10:11:03.423Z,5.50
2018-07-13T10:13:31.380Z,6.00
2018-07-13T10:15:59.066Z,5.20
2018-07-13T10:18:27.532Z,4.63
2018-07-13T10:20:56.050Z,4.50
2018-07-13T10:23:24.335Z,4.50
2018-07-13T10:25:55.462Z,5.20
2018-07-13T10:28:23.162Z,5.57
2018-07-13T10:30:50.868Z,3.50
2018-07-13T10:33:19.442Z,3.30
2018-07-13T10:35:47.138Z,3.40
2018-07-13T10:38:15.187Z,2.70
2018-07-13T10:40:43.299Z,3.97
2018-07-13T10:43:10.991Z,3.67
2018-07-13T10:45:38.685Z,4.10
2018-07-13T10:48:06.606Z,4.13
2018-07-13T10:50:35.173Z,3.47
2018-07-13T10:53:08.109Z,3.37
2018-07-13T10:55:35.705Z,3.27
2018-07-13T10:58:03.366Z,3.30
2018-07-13T11:00:33.984Z,3.80
2018-07-13T11:03:01.727Z,4.00
2018-07-13T11:05:29.384Z,4.00
2018-07-13T11:07:57.168Z,3.60
2018-07-13T11:10:24.713Z,4.10
2018-07-13T11:12:53.233Z,3.80
2018-07-13T11:15:20.921Z,4.43
2018-07-13T11:17:48.539Z,3.93
2018-07-13T11:20:16.239Z,4.40
2018-07-13T11:22:44.227Z,4.50
2018-07-13T11:25:12.099Z,3.50
2018-07-13T11:27:39.787Z,4.03
2018-07-13T11:30:07.610Z,3.90
2018-07-13T11:32:35.472Z,4.50
2018-07-13T11:35:03.956Z,3.87
2018-07-13T11:37:32.150Z,4.30
2018-07-13T11:39:59.807Z,4.00
2018-07-13T11:42:27.431Z,3.83
2018-07-13T11:44:55.296Z,3.90
2018-07-13T11:47:22.911Z,3.77
2018-07-13T11:49:50.510Z,4.40
2018-07-13T11:52:18.099Z,3.90
2018-07-13T11:54:45.766Z,3.73
2018-07-13T11:57:13.906Z,4.07
2018-07-13T11:59:42.220Z,3.77
2018-07-13T12:02:09.863Z,3.97
2018-07-13T12:04:37.438Z,3.47
2018-07-13T12:07:05.308Z,3.50
2018-07-13T12:09:32.882Z,3.60
2018-07-13T12:12:00.577Z,3.73
2018-07-13T12:14:28.245Z,4.20
2018-07-13T12:16:55.813Z,3.83
2018-07-13T12:19:24.007Z,3.43
2018-07-13T12:21:51.738Z,3.83
2018-07-13T12:24:19.303Z,3.20
2018-07-13T12:26:46.980Z,4.20
2018-07-13T12:29:14.709Z,3.50
2018-07-13T12:31:42.414Z,3.90
2018-07-13T12:34:10.479Z,4.50
2018-07-13T12:36:38.235Z,4.40
2018-07-13T12:39:06.226Z,4.07
2018-07-13T12:41:33.754Z,3.50
2018-07-13T12:44:01.376Z,3.90
2018-07-13T12:46:29.577Z,4.03
2018-07-13T12:48:57.201Z,3.80
2018-07-13T12:51:24.780Z,4.13
2018-07-13T12:53:52.544Z,3.80
2018-07-13T12:56:20.037Z,3.97
2018-07-13T12:58:47.658Z,3.47
2018-07-13T13:01:15.253Z,3.30
2018-07-13T13:03:43.047Z,3.77
2018-07-13T13:06:10.611Z,3.53
2018-07-13T13:08:38.237Z,3.60
2018-07-13T13:11:07.468Z,3.90
2018-07-13T13:13:35.043Z,3.60
2018-07-13T13:16:02.850Z,3.50
2018-07-13T13:18:30.480Z,3.23
2018-07-13T13:20:58.084Z,4.17
2018-07-13T13:23:25.817Z,3.67
2018-07-13T13:25:53.385Z,3.30
2018-07-13T13:28:20.980Z,4.43
2018-07-13T13:30:48.586Z,4.47
2018-07-13T13:33:16.162Z,4.53
2018-07-13T13:35:43.862Z,4.50
2018-07-13T13:38:11.514Z,4.23
2018-07-13T13:40:39.151Z,4.40
2018-07-13T13:43:06.951Z,4.47
2018-07-13T13:45:34.536Z,5.27
2018-07-13T13:48:03.213Z,4.63
2018-07-13T13:50:30.855Z,4.60
2018-07-13T13:52:58.466Z,4.80
2018-07-13T13:55:26.054Z,4.27
2018-07-13T13:57:53.633Z,4.90
2018-07-13T14:00:21.402Z,3.70
2018-07-13T14:02:49.028Z,3.73
2018-07-13T14:05:16.790Z,3.60
2018-07-13T14:07:44.676Z,4.70
2018-07-13T14:10:12.759Z,4.00
2018-07-13T14:12:40.396Z,3.50
2018-07-13T14:15:07.989Z,3.77
2018-07-13T14:17:35.630Z,3.57
2018-07-13T14:20:03.278Z,4.50
2018-07-13T14:22:32.240Z,3.60
2018-07-13T14:24:59.878Z,4.00
2018-07-13T14:27:27.446Z,3.50
2018-07-13T14:29:55.916Z,3.30
2018-07-13T14:32:23.566Z,3.50
2018-07-13T14:34:51.248Z,3.50
2018-07-13T14:37:18.883Z,4.07
2018-07-13T14:39:46.816Z,3.80
2018-07-13T14:42:14.515Z,3.27
2018-07-13T14:44:42.058Z,3.70
2018-07-13T14:47:09.735Z,2.97
2018-07-13T14:49:37.279Z,3.70
2018-07-13T14:52:04.938Z,4.03
2018-07-13T14:54:34.184Z,3.83
2018-07-13T14:57:01.799Z,3.63
2018-07-13T14:59:29.482Z,4.23
2018-07-13T15:01:57.114Z,3.90
2018-07-13T15:04:24.749Z,3.97
2018-07-13T15:06:53.321Z,3.90
2018-07-13T15:09:24.184Z,3.80
2018-07-13T15:11:51.963Z,3.90
2018-07-13T15:14:19.486Z,3.83
2018-07-13T15:16:47.086Z,3.60
2018-07-13T15:19:14.847Z,3.40
2018-07-13T15:21:44.783Z,3.60
2018-07-13T15:24:14.033Z,3.70
2018-07-13T15:26:41.578Z,3.97
2018-07-13T15:29:09.242Z,3.60
2018-07-13T15:31:36.888Z,3.20
2018-07-13T15:34:04.777Z,4.03
2018-07-13T15:36:32.543Z,3.83
2018-07-13T15:39:01.956Z,3.70
2018-07-13T15:41:29.592Z,3.43
2018-07-13T15:43:57.150Z,3.60
2018-07-13T15:46:24.721Z,3.80
2018-07-13T15:48:52.668Z,3.33
2018-07-13T15:51:20.190Z,3.40
2018-07-13T15:53:47.907Z,3.50
2018-07-13T15:56:15.521Z,3.00
2018-07-13T15:58:43.354Z,3.67
2018-07-13T16:01:13.943Z,3.20
2018-07-13T16:03:41.544Z,4.40
2018-07-13T16:06:09.124Z,3.50
2018-07-13T16:08:36.730Z,3.60
2018-07-13T16:11:11.343Z,3.30
2018-07-13T16:13:39.561Z,4.67
2018-07-13T16:16:10.818Z,3.70
2018-07-13T16:18:40.165Z,3.40
2018-07-13T16:21:07.798Z,3.53
2018-07-13T16:23:35.395Z,3.17
2018-07-13T16:26:03.446Z,3.37
2018-07-13T16:28:32.076Z,3.00
2018-07-13T16:31:00.436Z,2.80
2018-07-13T16:33:28.028Z,3.50
2018-07-13T16:35:55.645Z,3.00
2018-07-13T16:38:23.743Z,3.63
2018-07-13T16:40:51.343Z,3.63
2018-07-13T16:43:18.910Z,3.20
2018-07-13T16:45:46.496Z,3.90
2018-07-13T16:48:15.551Z,3.00
2018-07-13T16:50:43.376Z,3.57
2018-07-13T16:53:11.343Z,3.30
2018-07-13T16:55:38.938Z,2.80
2018-07-13T16:58:06.604Z,3.60
2018-07-13T17:00:34.179Z,3.90
2018-07-13T17:03:02.771Z,3.30
2018-07-13T17:05:36.134Z,3.07
2018-07-13T17:08:05.860Z,4.20
2018-07-13T17:10:33.586Z,3.50
2018-07-13T17:13:01.208Z,5.20
2018-07-13T17:15:32.503Z,3.63
2018-07-13T17:18:00.240Z,3.40
2018-07-13T17:20:28.362Z,3.10
2018-07-13T17:22:58.557Z,3.10
2018-07-13T17:25:26.173Z,3.00
2018-07-13T17:27:53.828Z,3.47
2018-07-13T17:30:21.454Z,3.13
2018-07-13T17:32:49.168Z,3.30
2018-07-13T17:35:16.810Z,3.10
2018-07-13T17:37:44.433Z,3.87
2018-07-13T17:40:12.602Z,4.03
2018-07-13T17:42:40.262Z,3.60
2018-07-13T17:45:08.015Z,3.30
2018-07-13T17:47:35.609Z,4.23
2018-07-13T17:50:03.219Z,3.93
2018-07-13T17:52:31.040Z,4.30
2018-07-13T17:54:58.583Z,6.57
2018-07-13T17:57:26.529Z,5.07
2018-07-13T17:59:54.205Z,6.50
2018-07-13T18:02:22.948Z,4.30
2018-07-13T18:04:51.573Z,4.50
2018-07-13T18:07:19.202Z,5.57
2018-07-13T18:09:46.794Z,4.70
2018-07-13T18:12:14.705Z,3.90
2018-07-13T18:14:42.666Z,3.73
2018-07-13T18:17:10.446Z,4.70
2018-07-13T18:19:38.028Z,4.00
2018-07-13T18:22:07.117Z,4.57
2018-07-13T18:24:34.646Z,3.63
2018-07-13T18:27:02.370Z,4.53
2018-07-13T18:29:30.027Z,5.43
2018-07-13T18:31:57.592Z,4.63
2018-07-13T18:34:25.170Z,9.20
2018-07-13T18:36:52.793Z,15.43
2018-07-13T18:39:21.130Z,12.03
2018-07-13T18:41:48.798Z,6.37
2018-07-13T18:44:16.506Z,4.60
2018-07-13T18:46:44.718Z,3.60
2018-07-13T18:49:12.720Z,4.47
2018-07-13T18:51:40.292Z,10.90
2018-07-13T18:54:07.999Z,7.27
2018-07-13T18:56:35.834Z,10.37
2018-07-13T18:59:03.390Z,6.47
2018-07-13T19:01:31.050Z,5.80
2018-07-13T19:04:08.282Z,7.80
2018-07-13T19:06:51.281Z,6.10
2018-07-13T19:09:33.278Z,4.43
2018-07-13T19:12:01.020Z,3.80
2018-07-13T19:14:28.741Z,4.50
2018-07-13T19:16:56.298Z,5.17
2018-07-13T19:19:24.252Z,4.20
2018-07-13T19:21:52.010Z,5.17
2018-07-13T19:24:19.607Z,4.60
2018-07-13T19:26:47.177Z,5.47
2018-07-13T19:29:14.843Z,6.60
2018-07-13T19:31:43.769Z,5.93
2018-07-13T19:34:11.414Z,5.70
2018-07-13T19:36:39.050Z,5.10
2018-07-13T19:39:06.804Z,5.43
2018-07-13T19:41:34.452Z,5.33
2018-07-13T19:44:02.168Z,5.73
2018-07-13T19:46:29.913Z,5.87
2018-07-13T19:48:57.501Z,5.70
2018-07-13T19:51:25.069Z,5.40
2018-07-13T19:53:52.666Z,6.30
2018-07-13T19:56:20.625Z,6.23
2018-07-13T19:58:48.237Z,6.83
2018-07-13T20:01:15.797Z,6.60
2018-07-13T20:03:44.280Z,6.60
2018-07-13T20:06:11.935Z,6.43
2018-07-13T20:08:39.505Z,5.70
2018-07-13T20:11:07.141Z,5.67
2018-07-13T20:13:34.724Z,6.17
2018-07-13T20:16:02.298Z,5.90
2018-07-13T20:18:29.890Z,5.60
2018-07-13T20:20:57.562Z,5.60
2018-07-13T20:23:25.482Z,8.43
2018-07-13T20:25:53.083Z,5.60
2018-07-13T20:28:22.392Z,6.30
2018-07-13T20:30:50.061Z,7.90
2018-07-13T20:33:17.922Z,6.90
2018-07-13T20:35:45.620Z,6.80
2018-07-13T20:38:13.618Z,5.87
2018-07-13T20:40:42.466Z,7.00
2018-07-13T20:43:10.078Z,6.63
2018-07-13T20:45:37.779Z,6.77
2018-07-13T20:48:05.469Z,6.77
2018-07-13T20:50:33.499Z,5.90
2018-07-13T20:53:01.494Z,7.00
2018-07-13T20:55:29.205Z,6.77
2018-07-13T20:57:57.361Z,6.97
2018-07-13T21:00:25.299Z,7.50
2018-07-13T21:02:53.462Z,7.00
2018-07-13T21:05:21.467Z,6.60
2018-07-13T21:07:49.022Z,7.10
2018-07-13T21:10:16.982Z,6.60
2018-07-13T21:12:44.824Z,8.17
2018-07-13T21:15:12.561Z,8.63
2018-07-13T21:17:40.777Z,6.30
2018-07-13T21:20:08.809Z,7.47
2018-07-13T21:22:36.696Z,7.27
2018-07-13T21:25:04.695Z,5.67
2018-07-13T21:27:33.141Z,6.20
2018-07-13T21:30:01.224Z,5.97
2018-07-13T21:32:29.173Z,5.70
2018-07-13T21:34:57.265Z,5.77
2018-07-13T21:37:25.607Z,5.40
2018-07-13T21:39:53.238Z,4.83
2018-07-13T21:42:21.556Z,5.80
2018-07-13T21:44:49.604Z,5.20
2018-07-13T21:47:17.267Z,7.07
2018-07-13T21:49:44.994Z,6.50
2018-07-13T21:52:14.028Z,5.73
2018-07-13T21:54:41.904Z,5.60
2018-07-13T21:57:09.808Z,6.00
2018-07-13T21:59:37.731Z,6.00
2018-07-13T22:02:05.429Z,5.33
2018-07-13T22:04:33.089Z,5.00
2018-07-13T22:07:01.045Z,6.70
2018-07-13T22:09:29.130Z,6.93
2018-07-13T22:11:56.730Z,5.67
2018-07-13T22:14:24.336Z,6.60
2018-07-13T22:16:51.946Z,6.97
2018-07-13T22:19:19.547Z,6.60
2018-07-13T22:21:47.307Z,9.17
2018-07-13T22:24:15.075Z,7.20
2018-07-13T22:26:42.734Z,5.93
2018-07-13T22:29:10.431Z,7.47
2018-07-13T22:31:38.134Z,6.27
2018-07-13T22:34:06.022Z,5.50
2018-07-13T22:36:33.589Z,5.47
2018-07-13T22:39:03.669Z,8.40
2018-07-13T22:41:32.048Z,6.83
2018-07-13T22:43:59.687Z,5.80
2018-07-13T22:46:27.206Z,5.97
2018-07-13T22:48:54.770Z,6.13
2018-07-13T22:51:22.455Z,6.17
2018-07-13T22:53:50.124Z,6.37
2018-07-13T22:56:17.770Z,6.60
2018-07-13T22:58:45.311Z,7.43
2018-07-13T23:01:13.064Z,5.97
2018-07-13T23:03:40.622Z,6.70
2018-07-13T23:06:08.363Z,7.20
2018-07-13T23:08:36.108Z,6.50
2018-07-13T23:11:03.761Z,6.33
2018-07-13T23:13:31.410Z,6.77
2018-07-13T23:15:59.041Z,6.30
2018-07-13T23:18:26.644Z,6.73
2018-07-13T23:20:54.177Z,7.30
2018-07-13T23:23:21.775Z,7.07
2018-07-13T23:25:49.326Z,6.30
2018-07-13T23:28:16.856Z,7.40
2018-07-13T23:30:44.594Z,6.20
2018-07-13T23:33:12.192Z,6.27
2018-07-13T23:35:39.832Z,7.50
2018-07-13T23:38:07.612Z,7.80
2018-07-13T23:40:35.269Z,8.10
2018-07-13T23:43:02.886Z,6.97
2018-07-13T23:45:30.486Z,6.67
2018-07-13T23:47:58.117Z,6.63
2018-07-13T23:50:25.665Z,7.13
2018-07-13T23:52:53.373Z,7.30
2018-07-13T23:55:20.943Z,7.70
2018-07-13T23:57:49.523Z,7.23
